createdAt,value
2023-03-31T00:00:18.986Z,8.00
2023-03-31T00:10:22.788Z,8.10
2023-03-31T00:20:27.962Z,8.10
2023-03-31T00:30:31.852Z,8.30
2023-03-31T00:40:38.675Z,8.40
2023-03-31T00:50:48.911Z,8.40
2023-03-31T01:00:54.369Z,8.50
2023-03-31T01:11:03.464Z,8.50
2023-03-31T01:21:53.938Z,8.50
2023-03-31T01:32:33.212Z,8.60
2023-03-31T01:42:41.076Z,8.60
2023-03-31T01:52:52.434Z,8.60
2023-03-31T02:03:02.504Z,8.40
2023-03-31T02:13:08.469Z,8.40
2023-03-31T02:23:16.977Z,8.50
2023-03-31T02:33:21.480Z,8.30
2023-03-31T02:43:28.278Z,8.30
2023-03-31T02:53:44.987Z,8.30
2023-03-31T03:04:04.036Z,8.30
2023-03-31T03:14:18.578Z,8.20
2023-03-31T03:24:23.726Z,7.90
2023-03-31T03:34:27.247Z,7.60
2023-03-31T03:44:32.407Z,7.60
2023-03-31T03:54:36.232Z,7.60
2023-03-31T04:04:41.329Z,7.60
2023-03-31T04:14:45.165Z,7.70
2023-03-31T04:24:52.888Z,7.70
2023-03-31T04:35:03.098Z,7.60
2023-03-31T04:45:09.758Z,7.50
2023-03-31T04:55:13.521Z,7.40
2023-03-31T05:05:18.755Z,7.50
2023-03-31T05:15:22.856Z,7.50
2023-03-31T05:25:32.727Z,7.80
2023-03-31T05:35:36.434Z,8.10
2023-03-31T05:45:41.482Z,8.40
2023-03-31T05:55:45.821Z,9.10
2023-03-31T06:05:54.154Z,9.80
2023-03-31T06:16:02.280Z,9.80
2023-03-31T06:26:09.398Z,9.50
2023-03-31T06:36:15.970Z,10.80
2023-03-31T06:46:21.469Z,10.70
2023-03-31T06:56:24.971Z,14.40
2023-03-31T07:06:30.089Z,18.00
2023-03-31T07:16:33.777Z,20.60
2023-03-31T07:26:39.007Z,23.00
2023-03-31T07:36:42.626Z,24.40
2023-03-31T07:46:47.821Z,25.40
2023-03-31T07:56:51.626Z,26.40
2023-03-31T08:06:57.806Z,24.00
2023-03-31T08:17:01.354Z,27.10
2023-03-31T08:27:11.957Z,24.20
2023-03-31T08:37:15.872Z,23.80
2023-03-31T08:47:25.795Z,29.30
2023-03-31T08:57:37.765Z,27.90
2023-03-31T09:07:52.988Z,26.20
2023-03-31T09:17:59.601Z,24.60
2023-03-31T09:28:10.504Z,30.80
2023-03-31T09:38:17.443Z,26.20
2023-03-31T09:48:27.760Z,30.00
2023-03-31T09:58:31.836Z,36.00
2023-03-31T10:08:41.941Z,36.30
2023-03-31T10:18:46.023Z,38.40
2023-03-31T10:28:53.082Z,36.10
2023-03-31T10:38:58.312Z,36.20
2023-03-31T10:49:17.756Z,34.10
2023-03-31T10:59:48.263Z,39.30
2023-03-31T11:10:09.831Z,43.40
2023-03-31T11:20:22.439Z,37.50
2023-03-31T11:30:34.608Z,27.10
2023-03-31T11:40:54.578Z,22.10
2023-03-31T11:51:01.557Z,19.90
2023-03-31T12:01:15.669Z,22.00
2023-03-31T12:11:28.853Z,23.70
2023-03-31T12:21:35.433Z,24.70
2023-03-31T12:31:44.382Z,29.20
2023-03-31T12:42:25.113Z,29.80
2023-03-31T12:52:40.762Z,27.30
2023-03-31T13:02:44.683Z,26.00
2023-03-31T13:13:03.248Z,25.90
2023-03-31T13:23:19.733Z,24.80
2023-03-31T13:33:33.912Z,22.40
2023-03-31T13:44:02.547Z,20.20
2023-03-31T13:54:40.608Z,18.00
2023-03-31T14:05:29.922Z,16.70
2023-03-31T14:15:39.070Z,16.50
2023-03-31T14:25:51.948Z,16.80
2023-03-31T14:36:03.851Z,16.60
2023-03-31T14:46:10.010Z,15.60
2023-03-31T14:56:20.498Z,14.70
2023-03-31T15:06:26.980Z,14.10
2023-03-31T15:16:42.702Z,13.60
2023-03-31T15:26:53.297Z,13.30
2023-03-31T15:36:59.207Z,13.20
2023-03-31T15:47:08.345Z,13.10
2023-03-31T15:57:19.912Z,12.80
2023-03-31T16:07:27.262Z,12.80
2023-03-31T16:17:37.171Z,12.90
2023-03-31T16:27:44.502Z,12.90
2023-03-31T16:37:50.890Z,12.70
2023-03-31T16:47:54.907Z,12.60
2023-03-31T16:58:04.621Z,12.20
2023-03-31T17:08:08.644Z,11.90
2023-03-31T17:18:14.043Z,11.60
2023-03-31T17:28:18.493Z,11.30
2023-03-31T17:38:24.009Z,11.10
2023-03-31T17:48:28.021Z,10.90
2023-03-31T17:58:34.219Z,10.80
2023-03-31T18:08:38.944Z,10.50
2023-03-31T18:18:46.465Z,10.00
2023-03-31T18:28:50.420Z,10.00
2023-03-31T18:38:55.533Z,9.90
2023-03-31T18:48:59.703Z,9.60
2023-03-31T18:59:05.498Z,9.30
2023-03-31T19:09:09.340Z,9.40
2023-03-31T19:19:14.416Z,9.20
2023-03-31T19:29:18.746Z,9.10
2023-03-31T19:39:25.465Z,8.90
2023-03-31T19:49:29.322Z,8.80
2023-03-31T19:59:34.578Z,9.00
2023-03-31T20:09:38.465Z,9.00
2023-03-31T20:19:43.611Z,8.90
2023-03-31T20:29:47.201Z,8.70
2023-03-31T20:39:52.421Z,8.80
2023-03-31T20:49:56.009Z,8.60
2023-03-31T21:00:02.188Z,8.50
2023-03-31T21:10:06.780Z,8.60
2023-03-31T21:20:12.797Z,9.10
2023-03-31T21:30:17.240Z,9.40
2023-03-31T21:40:22.393Z,9.50
2023-03-31T21:50:47.039Z,9.50
2023-03-31T22:00:52.689Z,9.40
2023-03-31T22:11:00.075Z,9.10
2023-03-31T22:21:06.520Z,9.10
2023-03-31T22:31:10.528Z,9.10
2023-03-31T22:41:15.842Z,9.20
2023-03-31T22:51:19.574Z,9.10
2023-03-31T23:01:24.843Z,9.00
2023-03-31T23:11:28.839Z,8.90
2023-03-31T23:21:34.449Z,8.80
2023-03-31T23:31:38.127Z,8.60
2023-03-31T23:41:43.297Z,8.40
2023-03-31T23:51:47.002Z,8.30
